Flight Track Log - Related Links

Times and Time Zones

All times are in EDT time to prevent confusion due to time zone crossing. See the FIN667 flight status page for this flight to view local times or setup timezone preferences in your user account.

Time Position Orientation Groundspeed Altitude Reporting Facility
EDT Latitude Longitude Course Direction KTS MPH feet Rate Location/Type
Thu 10:50:00 AM 60.1599 24.4284 240° Southwest  Level Estimated
Thu 10:51:00 AM 60.1070 24.2513 239° Southwest  Level Estimated
Thu 10:52:00 AM 60.0539 24.0747 239° Southwest  Level Estimated
Thu 10:53:00 AM 59.9983 23.8916 239° Southwest  Level Estimated
Thu 10:54:00 AM 59.9426 23.7092 239° Southwest  Level Estimated
Thu 10:55:00 AM 59.8866 23.5274 239° Southwest  Level Estimated
Thu 10:56:00 AM 59.8303 23.3462 238° Southwest  Level Estimated
Thu 10:57:00 AM 59.7738 23.1656 238° Southwest  Level Estimated
Thu 10:58:00 AM 59.7170 22.9856 238° Southwest  Level Estimated
Thu 10:59:00 AM 59.6600 22.8062 238° Southwest  Level Estimated
Thu 11:00:00 AM 59.6027 22.6274 238° Southwest  Level Estimated
Thu 11:01:00 AM 59.5452 22.4493 238° Southwest  Level Estimated
Thu 11:02:00 AM 59.4875 22.2717 237° Southwest  Level Estimated
Thu 11:03:00 AM 59.4295 22.0948 237° Southwest  Level Estimated
Thu 11:04:00 AM 59.3713 21.9185 237° Southwest  Level Estimated
Thu 11:05:00 AM 59.3128 21.7427 237° Southwest  Level Estimated
Thu 11:06:00 AM 59.2541 21.5676 237° Southwest  Level Estimated
Thu 11:07:00 AM 59.1952 21.3931 237° Southwest  Level Estimated
Thu 11:08:00 AM 59.1361 21.2192 237° Southwest  Level Estimated
Thu 11:09:00 AM 59.0767 21.0459 236° Southwest  Level Estimated
Thu 11:10:00 AM 59.0170 20.8731 236° Southwest  Level Estimated
Thu 11:11:00 AM 58.9572 20.7010 236° Southwest  Level Estimated
Thu 11:12:00 AM 58.8971 20.5295 236° Southwest  Level Estimated
Thu 11:13:00 AM 58.8368 20.3586 236° Southwest  Level Estimated
Thu 11:14:00 AM 58.7763 20.1882 236° Southwest  Level Estimated
Thu 11:15:00 AM 58.7155 20.0185 235° Southwest  Level Estimated
Thu 11:16:00 AM 58.6545 19.8494 235° Southwest  Level Estimated
Thu 11:17:00 AM 58.5933 19.6808 235° Southwest  Level Estimated
Thu 11:18:00 AM 58.5319 19.5129 235° Southwest  Level Estimated
Thu 11:19:00 AM 58.4703 19.3455 235° Southwest  Level Estimated
Thu 11:20:00 AM 58.4085 19.1787 235° Southwest  Level Estimated
Thu 11:21:00 AM 58.3464 19.0125 235° Southwest  Level Estimated
Thu 11:22:00 AM 58.2841 18.8469 234° Southwest  Level Estimated
Thu 11:23:00 AM 58.2216 18.6819 234° Southwest  Level Estimated
Thu 11:24:00 AM 58.1589 18.5174 234° Southwest  Level Estimated
Thu 11:25:00 AM 58.0960 18.3535 234° Southwest  Level Estimated
Thu 11:26:00 AM 58.0328 18.1902 234° Southwest  Level Estimated
Thu 11:27:00 AM 57.9695 18.0275 234° Southwest  Level Estimated
Thu 11:28:00 AM 57.9060 17.8654 234° Southwest  Level Estimated
Thu 11:29:00 AM 57.8422 17.7038 233° Southwest  Level Estimated
Thu 11:30:00 AM 57.7783 17.5428 233° Southwest  Level Estimated
Thu 11:31:00 AM 57.7141 17.3824 233° Southwest  Level Estimated
Thu 11:32:00 AM 57.6497 17.2225 233° Southwest  Level Estimated
Thu 11:33:00 AM 57.5852 17.0632 233° Southwest  Level Estimated
Thu 11:34:00 AM 57.5204 16.9045 233° Southwest  Level Estimated
Thu 11:35:00 AM 57.4555 16.7463 233° Southwest  Level Estimated
Thu 11:36:00 AM 57.3903 16.5887 233° Southwest  Level Estimated
Thu 11:37:00 AM 57.3250 16.4317 232° Southwest  Level Estimated
Thu 11:38:00 AM 57.2594 16.2752 232° Southwest  Level Estimated
Thu 11:39:00 AM 57.1937 16.1193 232° Southwest  Level Estimated
Thu 11:40:00 AM 57.1277 15.9639 232° Southwest  Level Estimated
Thu 11:41:00 AM 57.0616 15.8091 232° Southwest  Level Estimated
Thu 11:42:00 AM 56.9953 15.6548 232° Southwest  Level Estimated
Thu 11:43:00 AM 56.9288 15.5011 232° Southwest  Level Estimated
Thu 11:44:00 AM 56.8621 15.3479 232° Southwest  Level Estimated
Thu 11:45:00 AM 56.7952 15.1953 231° Southwest  Level Estimated
Thu 11:46:00 AM 56.7282 15.0432 231° Southwest  Level Estimated
Thu 11:47:00 AM 56.6609 14.8917 231° Southwest  Level Estimated
Thu 11:48:00 AM 56.5935 14.7407 231° Southwest  Level Estimated
Thu 11:49:00 AM 56.5259 14.5902 231° Southwest  Level Estimated
Thu 11:50:00 AM 56.4581 14.4403 231° Southwest  Level Estimated
Thu 11:51:00 AM 56.3901 14.2909 231° Southwest  Level Estimated
Thu 11:52:00 AM 56.3220 14.1421 230° Southwest  Level Estimated
Thu 11:53:00 AM 56.2537 13.9937 230° Southwest  Level Estimated
Thu 11:54:00 AM 56.1851 13.8460 230° Southwest  Level Estimated
Thu 11:55:00 AM 56.1165 13.6987 230° Southwest  Level Estimated
Thu 11:56:00 AM 56.0476 13.5519 230° Southwest  Level Estimated
Thu 11:57:00 AM 55.9786 13.4057 230° Southwest  Level Estimated
Thu 11:58:00 AM 55.9094 13.2600 230° Southwest  Level Estimated
Thu 11:59:00 AM 55.8400 13.1149 230° Southwest  Level Estimated
Thu 12:00:00 PM 55.7704 12.9702 230° Southwest  Level Estimated
Thu 12:01:00 PM 55.7007 12.8261 229° Southwest  Level Estimated
Thu 12:02:00 PM 55.6308 12.6824 229° Southwest  Level Estimated
Thu 12:03:00 PM 55.6179 12.6560 229° Southwest  Level Estimated
Thu 12:04:00 PM 55.6179 12.6560 159° South  Level Estimated
Thu 12:05:00 PM 55.6179 12.6560 159° South  Level Estimated
Thu 12:06:00 PM 55.6179 12.6560 159° South  Level Estimated
Thu 12:07:00 PM 55.6179 12.6560 159° South  Level Estimated
Thu 12:08:00 PM 55.6179 12.6560 159° South  Level Estimated
Thu 12:09:00 PM 55.6179 12.6560 159° South  Level Estimated
Thu 12:10:00 PM 55.6179 12.6560 159° South  Level Estimated
Thu 12:11:00 PM 55.6179 12.6560 159° South  Level Estimated
Thu 12:12:00 PM 55.6179 12.6560 159° South  Level Estimated
Thu 12:13:00 PM 55.6179 12.6560 159° South  Level Estimated
Thu 12:14:00 PM 55.6179 12.6560 159° South  Level Estimated
Thu 12:15:00 PM 55.6179 12.6560 159° South  Level Estimated
Thu 12:16:00 PM 55.6179 12.6560 159° South  Level Estimated
Thu 12:17:00 PM 55.6179 12.6560 159° South  Level Estimated
Thu 12:18:00 PM 55.6179 12.6560 159° South  Level Estimated

Login

Don't have an account? Register now (free) for customized features, flight alerts, and more!